createdAt,value
2023-01-11T00:03:41.879Z,1008.179932
2023-01-11T00:08:43.562Z,1008.257996
2023-01-11T00:13:44.141Z,1008.202209
2023-01-11T00:18:44.781Z,1008.127014
2023-01-11T00:23:45.299Z,1008.086548
2023-01-11T00:33:46.164Z,1007.821899
2023-01-11T00:38:46.578Z,1007.854309
2023-01-11T00:43:46.751Z,1007.744995
2023-01-11T00:48:47.192Z,1007.653931
2023-01-11T00:53:47.647Z,1007.605652
2023-01-11T00:58:48.353Z,1007.611023
2023-01-11T01:03:48.782Z,1007.562683
2023-01-11T01:08:49.128Z,1007.373596
2023-01-11T01:13:49.643Z,1007.35376
2023-01-11T01:18:50.310Z,1007.350769
2023-01-11T01:23:51.200Z,1007.358521
2023-01-11T01:28:51.588Z,1007.343445
2023-01-11T01:33:52.079Z,1007.345947
2023-01-11T01:38:52.419Z,1007.36792
2023-01-11T01:43:52.774Z,1007.170654
2023-01-11T01:48:53.156Z,1007.123108
2023-01-11T01:53:53.817Z,1007.068542
2023-01-11T01:58:54.304Z,1007.026855
2023-01-11T02:03:54.738Z,1006.887634
2023-01-11T02:08:55.328Z,1006.778809
2023-01-11T02:13:55.931Z,1006.740479
2023-01-11T02:18:56.529Z,1006.659668
2023-01-11T02:23:57.011Z,1006.611694
2023-01-11T02:28:57.756Z,1006.399841
2023-01-11T02:33:58.228Z,1006.258423
2023-01-11T02:38:58.877Z,1006.310791
2023-01-11T02:43:59.219Z,1006.186584
2023-01-11T02:48:59.733Z,1006.121887
2023-01-11T02:54:00.215Z,1006.100952
2023-01-11T02:59:00.909Z,1005.973755
2023-01-11T03:04:01.167Z,1005.961853
2023-01-11T03:09:01.600Z,1005.883728
2023-01-11T03:14:01.956Z,1005.764526
2023-01-11T03:19:02.354Z,1005.679932
2023-01-11T03:24:02.602Z,1005.702942
2023-01-11T03:34:03.721Z,1005.620605
2023-01-11T03:39:04.097Z,1005.494873
2023-01-11T03:44:04.462Z,1005.504211
2023-01-11T03:49:05.033Z,1005.332764
2023-01-11T03:54:05.714Z,1005.225525
2023-01-11T03:59:06.259Z,1005.259766
2023-01-11T04:04:06.764Z,1005.289063
2023-01-11T04:09:07.209Z,1005.208679
2023-01-11T04:14:07.639Z,1005.163757
2023-01-11T04:19:07.974Z,1005.077515
2023-01-11T04:24:08.495Z,1005.084167
2023-01-11T04:29:08.965Z,1004.909363
2023-01-11T04:34:09.355Z,1004.863892
2023-01-11T04:39:09.897Z,1004.761169
2023-01-11T04:44:10.366Z,1004.695801
2023-01-11T04:49:10.872Z,1004.673279
2023-01-11T04:54:11.410Z,1004.658752
2023-01-11T04:59:16.136Z,1004.653564
2023-01-11T05:04:16.943Z,1004.558105
2023-01-11T05:09:17.563Z,1004.531433
2023-01-11T05:14:22.131Z,1004.485596
2023-01-11T05:24:55.565Z,1004.34967
2023-01-11T05:29:56.027Z,1004.375916
2023-01-11T05:34:56.574Z,1004.467041
2023-01-11T05:39:57.021Z,1004.351563
2023-01-11T05:44:58.268Z,1004.257629
2023-01-11T05:50:02.234Z,1004.176697
2023-01-11T05:55:02.738Z,1004.18103
2023-01-11T06:00:03.688Z,1004.149658
2023-01-11T06:05:07.943Z,1003.934387
2023-01-11T06:10:08.567Z,1004.034363
2023-01-11T06:15:08.988Z,1003.934998
2023-01-11T06:20:10.429Z,1003.914368
2023-01-11T06:30:41.546Z,1003.895264
2023-01-11T06:41:11.913Z,1003.753113
2023-01-11T06:46:12.762Z,1003.883728
2023-01-11T06:56:13.804Z,1003.999207
2023-01-11T07:01:14.402Z,1004.002686
2023-01-11T07:06:14.971Z,1004.097961
2023-01-11T07:11:16.193Z,1004.029236
2023-01-11T07:16:16.709Z,1004.050781
2023-01-11T07:21:17.113Z,1004.109924
2023-01-11T07:26:20.044Z,1004.104736
2023-01-11T07:31:20.485Z,1004.122803
2023-01-11T07:36:20.851Z,1004.189087
2023-01-11T07:41:21.277Z,1004.207214
2023-01-11T07:46:22.015Z,1004.128296
2023-01-11T07:51:22.068Z,1004.110168
2023-01-11T07:56:23.627Z,1004.099243
2023-01-11T08:01:22.845Z,1004.081421
2023-01-11T08:06:23.749Z,1004.021545
2023-01-11T08:11:24.296Z,1004.008728
2023-01-11T08:16:24.979Z,1003.982971
2023-01-11T08:21:26.647Z,1003.974243
2023-01-11T08:26:27.000Z,1003.986694
2023-01-11T08:31:27.622Z,1003.903931
2023-01-11T08:36:28.115Z,1003.850769
2023-01-11T08:41:28.524Z,1003.847168
2023-01-11T08:46:29.727Z,1003.908142
2023-01-11T08:51:30.040Z,1003.916077
2023-01-11T08:56:30.525Z,1003.856384
2023-01-11T09:06:31.401Z,1003.803467
2023-01-11T09:11:31.755Z,1003.771301
2023-01-11T09:16:32.093Z,1003.780396
2023-01-11T09:21:32.429Z,1003.742249
2023-01-11T09:26:32.640Z,1003.6828
2023-01-11T09:31:33.213Z,1003.77533
2023-01-11T09:36:33.415Z,1003.696716
2023-01-11T09:41:33.810Z,1003.739197
2023-01-11T09:46:34.352Z,1003.588745
2023-01-11T09:51:34.863Z,1003.517822
2023-01-11T09:56:35.705Z,1003.539673
2023-01-11T10:01:36.307Z,1003.566162
2023-01-11T10:06:36.907Z,1003.446472
2023-01-11T10:18:34.846Z,1003.398682
2023-01-11T10:21:38.406Z,1003.29718
2023-01-11T10:26:38.933Z,1003.292908
2023-01-11T10:31:39.480Z,1003.227966
2023-01-11T10:36:40.743Z,1003.175964
2023-01-11T10:41:43.182Z,1002.705322
2023-01-11T10:46:42.506Z,1003.118591
2023-01-11T10:51:43.010Z,1003.069214
2023-01-11T10:57:02.228Z,1003.060547
2023-01-11T11:06:44.767Z,1003.006348
2023-01-11T11:16:48.009Z,1002.800781
2023-01-11T11:27:25.064Z,1002.677002
2023-01-11T11:32:27.571Z,1002.696533
2023-01-11T11:37:27.874Z,1002.682129
2023-01-11T11:42:28.389Z,1002.628723
2023-01-11T11:47:28.865Z,1002.549927
2023-01-11T11:52:29.365Z,1002.532471
2023-01-11T11:57:29.931Z,1002.497681
2023-01-11T12:02:30.824Z,1002.427185
2023-01-11T12:07:31.545Z,1002.366699
2023-01-11T12:17:32.185Z,1002.269226
2023-01-11T12:22:32.601Z,1002.199951
2023-01-11T12:27:33.194Z,1002.075562
2023-01-11T12:32:33.799Z,1002.148621
2023-01-11T12:47:35.366Z,1002.038818
2023-01-11T12:52:35.729Z,1002.041565
2023-01-11T12:57:36.537Z,1001.919556
2023-01-11T13:02:37.124Z,1001.791626
2023-01-11T13:07:37.658Z,1001.829346
2023-01-11T13:12:38.247Z,1001.873108
2023-01-11T13:17:47.646Z,1001.944153
2023-01-11T13:22:48.224Z,1001.804993
2023-01-11T13:27:48.820Z,1001.930908
2023-01-11T13:32:49.193Z,1001.910156
2023-01-11T13:37:49.584Z,1001.917786
2023-01-11T13:42:49.907Z,1001.858154
2023-01-11T13:47:50.753Z,1001.867188
2023-01-11T13:52:51.133Z,1001.883728
2023-01-11T14:03:21.640Z,1002.021118
2023-01-11T14:08:22.132Z,1002.030884
2023-01-11T14:13:23.171Z,1002.030334
2023-01-11T14:18:23.629Z,1002.046265
2023-01-11T14:23:23.916Z,1002.038818
2023-01-11T14:28:28.323Z,1002.102783
2023-01-11T14:39:00.362Z,1002.220215
2023-01-11T14:44:00.683Z,1002.213623
2023-01-11T14:49:01.185Z,1002.234924
2023-01-11T14:54:01.634Z,1002.265564
2023-01-11T14:59:02.130Z,1002.368225
2023-01-11T15:04:02.565Z,1002.320251
2023-01-11T15:09:02.801Z,1002.398926
2023-01-11T15:14:03.323Z,1002.430542
2023-01-11T15:19:03.856Z,1002.408997
2023-01-11T15:24:04.146Z,1002.453857
2023-01-11T15:29:04.463Z,1002.584839
2023-01-11T15:34:04.970Z,1002.691711
2023-01-11T15:39:05.420Z,1002.690613
2023-01-11T15:44:05.824Z,1002.720093
2023-01-11T15:49:06.210Z,1002.755249
2023-01-11T15:54:06.718Z,1002.865967
2023-01-11T15:59:07.208Z,1002.929382
2023-01-11T16:04:07.511Z,1003.007019
2023-01-11T16:09:08.047Z,1002.966736
2023-01-11T16:14:08.375Z,1003.097656
2023-01-11T16:19:09.147Z,1003.195618
2023-01-11T16:24:09.519Z,1003.273132
2023-01-11T16:29:09.928Z,1003.353149
2023-01-11T16:34:10.381Z,1003.456482
2023-01-11T16:39:10.805Z,1003.437195
2023-01-11T16:44:11.225Z,1003.362183
2023-01-11T16:49:11.547Z,1003.595886
2023-01-11T16:54:11.935Z,1003.622314
2023-01-11T16:59:12.349Z,1003.753601
2023-01-11T17:04:19.171Z,1003.690002
2023-01-11T17:09:16.455Z,1003.710754
2023-01-11T17:19:45.073Z,1003.907471
2023-01-11T17:24:45.698Z,1003.815002
2023-01-11T17:29:45.942Z,1003.801086
2023-01-11T17:39:46.707Z,1004.119873
2023-01-11T17:49:47.509Z,1004.001221
2023-01-11T18:04:49.342Z,1004.245178
2023-01-11T18:09:49.713Z,1004.399231
2023-01-11T18:14:53.334Z,1004.387024
2023-01-11T18:19:54.108Z,1004.502686
2023-01-11T18:24:55.319Z,1004.465393
2023-01-11T18:29:55.581Z,1004.537903
2023-01-11T18:34:56.464Z,1004.644836
2023-01-11T18:45:17.984Z,1004.488037
2023-01-11T18:50:21.167Z,1004.710022
2023-01-11T18:55:22.878Z,1004.662476
2023-01-11T19:00:23.866Z,1004.577087
2023-01-11T19:10:55.236Z,1005.038452
2023-01-11T19:15:55.544Z,1005.077637
2023-01-11T19:20:56.060Z,1004.86908
2023-01-11T19:25:56.475Z,1005.155945
2023-01-11T19:30:57.055Z,1005.22998
2023-01-11T19:35:57.276Z,1005.258423
2023-01-11T19:40:57.804Z,1005.262634
